createdAt,value
2019-03-15T00:04:20.379Z,99092.89
2019-03-15T00:09:45.786Z,99102.34
2019-03-15T00:15:09.644Z,99117.73
2019-03-15T00:26:22.198Z,99111.20
2019-03-15T00:31:47.890Z,99117.02
2019-03-15T00:37:12.299Z,99138.32
2019-03-15T00:42:37.139Z,99146.60
2019-03-15T00:48:01.507Z,99145.06
2019-03-15T00:53:25.767Z,99157.59
2019-03-15T00:58:49.200Z,99166.82
2019-03-15T01:04:14.110Z,99168.58
2019-03-15T01:09:37.978Z,99173.67
2019-03-15T01:15:02.553Z,99189.97
2019-03-15T01:20:27.057Z,99170.59
2019-03-15T01:25:51.160Z,99183.02
2019-03-15T01:31:14.742Z,99196.70
2019-03-15T01:36:38.644Z,99206.86
2019-03-15T01:42:03.119Z,99200.73
2019-03-15T01:47:26.905Z,99197.42
2019-03-15T01:52:50.686Z,99201.70
2019-03-15T01:58:15.346Z,99197.18
2019-03-15T02:03:39.559Z,99208.08
2019-03-15T02:09:05.357Z,99213.99
2019-03-15T02:14:29.409Z,99219.09
2019-03-15T02:19:54.130Z,99216.95
2019-03-15T02:25:18.727Z,99213.86
2019-03-15T02:30:42.606Z,99223.92
2019-03-15T02:36:07.612Z,99220.50
2019-03-15T02:41:32.379Z,99233.72
2019-03-15T02:46:57.595Z,99246.87
2019-03-15T02:52:22.025Z,99243.06
2019-03-15T02:57:46.719Z,99247.34
2019-03-15T03:03:11.217Z,99245.56
2019-03-15T03:08:35.134Z,99249.57
2019-03-15T03:13:59.133Z,99261.08
2019-03-15T03:19:24.463Z,99263.31
2019-03-15T03:24:48.651Z,99284.84
2019-03-15T03:30:16.649Z,99272.28
2019-03-15T03:35:39.791Z,99280.91
2019-03-15T03:41:04.551Z,99290.88
2019-03-15T03:46:28.855Z,99299.02
2019-03-15T03:51:54.510Z,99323.44
2019-03-15T03:57:18.480Z,99333.11
2019-03-15T04:02:42.431Z,99337.81
2019-03-15T04:08:07.592Z,99339.34
2019-03-15T04:13:32.366Z,99335.57
2019-03-15T04:18:56.244Z,99339.98
2019-03-15T04:24:20.939Z,99340.58
2019-03-15T04:29:45.594Z,99350.53
2019-03-15T04:35:09.688Z,99343.63
2019-03-15T04:40:33.529Z,99334.99
2019-03-15T04:45:57.950Z,99363.98
2019-03-15T04:51:22.232Z,99382.69
2019-03-15T04:56:46.080Z,99383.27
2019-03-15T05:02:09.800Z,99394.86
2019-03-15T05:07:33.326Z,99398.27
2019-03-15T05:12:57.366Z,99396.94
2019-03-15T05:18:21.950Z,99405.55
2019-03-15T05:23:46.650Z,99409.81
2019-03-15T05:29:10.436Z,99420.20
2019-03-15T05:34:34.368Z,99431.45
2019-03-15T05:39:58.983Z,99434.29
2019-03-15T05:45:23.998Z,99452.59
2019-03-15T05:50:48.627Z,99438.06
2019-03-15T05:56:12.312Z,99448.94
2019-03-15T06:01:36.467Z,99448.70
2019-03-15T06:07:00.109Z,99483.96
2019-03-15T06:12:24.531Z,99478.18
2019-03-15T06:17:48.216Z,99487.39
2019-03-15T06:23:12.266Z,99501.48
2019-03-15T06:28:36.476Z,99523.44
2019-03-15T06:34:01.208Z,99513.66
2019-03-15T06:39:24.794Z,99520.03
2019-03-15T06:44:58.049Z,99521.95
2019-03-15T06:50:14.728Z,99527.65
2019-03-15T06:55:38.529Z,99512.16
2019-03-15T07:01:02.930Z,99521.20
2019-03-15T07:06:27.115Z,99520.73
2019-03-15T07:11:50.943Z,99535.90
2019-03-15T07:17:15.735Z,99541.94
2019-03-15T07:22:39.351Z,99540.77
2019-03-15T07:28:03.267Z,99540.54
2019-03-15T07:33:27.900Z,99541.96
2019-03-15T07:38:52.675Z,99534.62
2019-03-15T07:44:17.263Z,99549.41
2019-03-15T07:49:40.965Z,99550.92
2019-03-15T07:55:06.174Z,99558.73
2019-03-15T08:00:29.915Z,99555.98
2019-03-15T08:05:53.794Z,99549.05
2019-03-15T08:11:18.690Z,99564.97
2019-03-15T08:16:43.597Z,99581.09
2019-03-15T08:22:07.988Z,99567.44
2019-03-15T08:27:31.785Z,99590.55
2019-03-15T08:33:09.253Z,99591.23
2019-03-15T08:38:21.879Z,99595.20
2019-03-15T08:43:46.175Z,99587.70
2019-03-15T08:49:10.854Z,99595.48
2019-03-15T08:54:35.706Z,99596.91
2019-03-15T09:00:00.644Z,99600.25
2019-03-15T09:05:26.071Z,99587.25
2019-03-15T09:10:50.028Z,99604.17
2019-03-15T09:16:13.793Z,99602.45
2019-03-15T09:21:38.785Z,99600.23
2019-03-15T09:27:02.884Z,99583.48
2019-03-15T09:32:27.394Z,99576.75
2019-03-15T09:37:52.300Z,99568.52
2019-03-15T09:43:16.304Z,99577.39
2019-03-15T09:48:43.632Z,99579.14
2019-03-15T09:54:06.875Z,99563.87
2019-03-15T09:59:30.776Z,99575.04
2019-03-15T10:04:55.518Z,99568.93
2019-03-15T10:10:20.516Z,99568.44
2019-03-15T10:15:44.690Z,99562.30
2019-03-15T10:21:09.440Z,99557.43
2019-03-15T10:26:34.182Z,99559.08
2019-03-15T10:31:58.935Z,99537.48
2019-03-15T10:37:22.662Z,99545.38
2019-03-15T10:42:46.214Z,99540.98
2019-03-15T10:48:09.936Z,99528.61
2019-03-15T10:53:33.943Z,99540.37
2019-03-15T10:58:58.481Z,99527.48
2019-03-15T11:04:23.252Z,99531.94
2019-03-15T11:09:48.580Z,99516.52
2019-03-15T11:15:12.322Z,99520.51
2019-03-15T11:20:37.258Z,99504.20
2019-03-15T11:26:13.083Z,99497.28
2019-03-15T11:31:28.103Z,99474.53
2019-03-15T11:36:58.146Z,99477.25
2019-03-15T11:42:18.050Z,99448.40
2019-03-15T11:48:01.260Z,99451.14
2019-03-15T11:53:08.115Z,99431.70
2019-03-15T11:58:32.036Z,99442.39
2019-03-15T12:03:56.463Z,99439.06
2019-03-15T12:09:22.131Z,99434.39
2019-03-15T12:14:47.056Z,99430.38
2019-03-15T12:20:11.621Z,99420.77
2019-03-15T12:25:37.288Z,99399.77
2019-03-15T12:31:01.559Z,99394.97
2019-03-15T12:36:26.051Z,99389.94
2019-03-15T12:41:50.916Z,99383.08
2019-03-15T12:47:14.727Z,99340.20
2019-03-15T12:52:47.291Z,99363.55
2019-03-15T12:58:05.485Z,99344.53
2019-03-15T13:03:29.670Z,99338.13
2019-03-15T13:08:53.749Z,99332.84
2019-03-15T13:14:17.605Z,99319.55
2019-03-15T13:19:54.159Z,99310.20
2019-03-15T13:25:08.156Z,99309.48
2019-03-15T13:30:32.397Z,99285.02
2019-03-15T13:35:57.326Z,99256.66
2019-03-15T13:41:21.600Z,99267.88
2019-03-15T13:46:46.261Z,99243.38
2019-03-15T13:52:11.145Z,99239.58
2019-03-15T13:57:35.703Z,99230.59
2019-03-15T14:03:00.345Z,99217.66
2019-03-15T14:08:25.786Z,99192.97
2019-03-15T14:13:50.123Z,99190.10
2019-03-15T14:19:14.811Z,99192.34
2019-03-15T14:24:39.412Z,99173.40
2019-03-15T14:30:03.344Z,99160.09
2019-03-15T14:35:28.393Z,99141.40
2019-03-15T14:40:52.361Z,99151.30
2019-03-15T14:46:17.244Z,99146.78
2019-03-15T14:51:40.851Z,99115.06
2019-03-15T14:57:04.844Z,99127.61
2019-03-15T15:02:28.551Z,99115.84
2019-03-15T15:07:52.862Z,99110.92
2019-03-15T15:13:17.692Z,99109.87
2019-03-15T15:18:42.096Z,99077.63
2019-03-15T15:24:07.155Z,99046.69
2019-03-15T15:29:30.879Z,99057.45
2019-03-15T15:34:54.790Z,99043.25
2019-03-15T15:40:19.287Z,99033.84
2019-03-15T15:45:44.077Z,99023.16
2019-03-15T15:51:08.971Z,99021.44
2019-03-15T15:56:32.835Z,99007.63
2019-03-15T16:01:57.066Z,98992.34
2019-03-15T16:07:21.804Z,98964.83
2019-03-15T16:12:45.685Z,98973.38
2019-03-15T16:18:09.564Z,98956.66
2019-03-15T16:23:34.222Z,98955.35
2019-03-15T16:28:58.889Z,98959.76
2019-03-15T16:34:22.693Z,98957.30
2019-03-15T16:39:47.040Z,98943.09
2019-03-15T16:45:15.255Z,98930.98
2019-03-15T16:50:38.948Z,98936.16
2019-03-15T16:56:03.772Z,98918.94
2019-03-15T17:01:28.704Z,98943.14
2019-03-15T17:06:52.503Z,98971.39
2019-03-15T17:12:16.867Z,98960.94
2019-03-15T17:17:41.289Z,98956.16
2019-03-15T17:23:05.879Z,98980.79
2019-03-15T17:28:30.409Z,98977.36
2019-03-15T17:33:54.270Z,98985.24
2019-03-15T17:39:18.057Z,98994.55
2019-03-15T17:44:42.767Z,98991.94
2019-03-15T17:50:09.065Z,98989.55
2019-03-15T17:55:33.488Z,98988.52
2019-03-15T18:00:58.282Z,98996.60
2019-03-15T18:06:23.121Z,98990.39
2019-03-15T18:11:47.229Z,99001.05
2019-03-15T18:17:11.018Z,99006.28
2019-03-15T18:22:35.777Z,98997.70
2019-03-15T18:27:59.646Z,98987.61
2019-03-15T18:33:24.411Z,98986.72
2019-03-15T18:38:48.053Z,98974.77
2019-03-15T18:44:12.760Z,98958.63
2019-03-15T18:49:37.319Z,98977.56
2019-03-15T18:55:02.042Z,98994.58
2019-03-15T19:00:25.776Z,99006.05
2019-03-15T19:05:50.459Z,99016.27
2019-03-15T19:11:16.142Z,99012.05
2019-03-15T19:16:41.016Z,99011.80
2019-03-15T19:22:06.540Z,99025.11
2019-03-15T19:27:30.175Z,99027.44
2019-03-15T19:32:54.235Z,99046.30
2019-03-15T19:38:18.511Z,99072.48
2019-03-15T19:43:43.333Z,99071.34
2019-03-15T19:49:06.889Z,99074.28
2019-03-15T19:54:32.139Z,99092.78
2019-03-15T20:00:07.069Z,99109.25
2019-03-15T20:05:22.223Z,99103.05
2019-03-15T20:10:47.065Z,99091.12
2019-03-15T20:16:11.466Z,99107.55
2019-03-15T20:21:36.290Z,99128.36
2019-03-15T20:27:19.727Z,99158.74
2019-03-15T20:32:44.165Z,99125.69
2019-03-15T20:38:08.721Z,99157.02
2019-03-15T20:43:32.537Z,99163.52
2019-03-15T20:48:57.431Z,99157.04
2019-03-15T20:54:22.439Z,99186.86
2019-03-15T20:59:46.923Z,99189.91
2019-03-15T21:05:11.783Z,99204.21
2019-03-15T21:11:09.732Z,99220.62
2019-03-15T21:16:33.492Z,99210.85
2019-03-15T21:21:57.594Z,99235.27
2019-03-15T21:27:21.630Z,99218.80
2019-03-15T21:32:46.538Z,99227.55
2019-03-15T21:44:41.757Z,99229.48
2019-03-15T21:50:07.886Z,99248.52
2019-03-15T21:55:32.372Z,99254.89
2019-03-15T22:01:02.708Z,99264.30
2019-03-15T22:06:23.123Z,99279.27
2019-03-15T22:11:47.230Z,99285.08
2019-03-15T22:17:11.923Z,99305.56
2019-03-15T22:22:36.736Z,99305.62
2019-03-15T22:28:00.798Z,99326.00
2019-03-15T22:33:25.063Z,99328.85
2019-03-15T22:38:49.418Z,99316.94
2019-03-15T22:44:14.214Z,99355.92
2019-03-15T22:49:38.757Z,99373.59
2019-03-15T22:55:02.425Z,99377.74
2019-03-15T23:00:30.196Z,99381.55
2019-03-15T23:05:55.627Z,99384.50
2019-03-15T23:11:20.316Z,99398.73
2019-03-15T23:16:44.840Z,99391.97
2019-03-15T23:22:08.964Z,99397.34
2019-03-15T23:27:33.520Z,99423.98
2019-03-15T23:32:57.112Z,99408.00
2019-03-15T23:38:21.774Z,99425.28
2019-03-15T23:43:46.619Z,99418.29
2019-03-15T23:49:10.871Z,99462.13
2019-03-15T23:54:35.840Z,99485.45
2019-03-15T23:59:59.518Z,99485.45
